Main page
METAR-TAF:

METAR-TAF

Airports :

Palma de Mallorca Airport

Palma de Mallorca, Spain

latitude: 39-33N, longitude: 002-44E, elevation: 4 m

Current weather observation

The report was made 11 minutes ago, at 09:00 UTC
Wind 15 kt from the West/Southwest, varying between South/Southwest and West
Temperature 18°C
Humidity 52%
Pressure 1011 hPa
Visibility 10 km or more
Few clouds at a height of 3500 ft

METAR: LEPA 240900Z 25015KT 210V280 9999 FEW035 18/08 Q1011 NOSIG

Time: 11:11 (09:11 UTC)

Forecast

The report was made 4 hours and 11 minutes ago, at 05:00 UTC
Forecast valid from 24 at 06 UTC to 25 at 06 UTC
Wind 13 kt from the Southwest
Visibility 10 km or more
Scattered clouds at a height of 1500 ft

TAF: LEPA 240500Z 2406/2506 23013KT 9999 SCT015 TX18/2412Z TN11/2406Z

Weather observations and forecasts of more than 4000 airports (METAR and TAF reports).

The available stations are represented by yellow and red dots on the map.

Hover mouse over dot to see the name of the station.

Then click to see weather observations and forecasts.

To change the map : click on the green buttons with a black cross to zoom in, on the green button with a dash to zoom out, or on the green arrows for adjacent maps.


METAR-TAF: